createdAt,value
2017-08-27T15:57:45.900Z,0
2017-08-27T16:00:51.649Z,48
2017-08-27T16:01:07.974Z,48
2017-08-27T16:01:24.279Z,48
2017-08-27T16:01:40.559Z,48
2017-08-27T16:01:56.865Z,48
2017-08-27T16:16:41.797Z,0
2017-08-27T16:17:12.963Z,0
2017-08-27T16:30:50.772Z,50
2017-08-27T16:31:06.918Z,50
2017-08-27T16:31:23.061Z,51
2017-08-27T16:31:39.237Z,51
2017-08-27T16:31:55.389Z,51
2017-08-27T16:32:11.561Z,51
2017-08-27T16:32:27.703Z,51
2017-08-27T16:32:43.869Z,51
2017-08-27T16:33:00.259Z,51
2017-08-27T16:34:16.761Z,52
2017-08-27T16:34:32.911Z,52
2017-08-27T16:34:49.042Z,52
2017-08-27T16:35:05.196Z,52
2017-08-27T16:36:11.321Z,52
2017-08-27T16:36:27.502Z,52
2017-08-27T16:37:35.992Z,53
2017-08-27T16:37:52.132Z,53
2017-08-27T16:38:08.354Z,53
2017-08-27T16:38:24.524Z,52
2017-08-27T16:38:41.928Z,52
2017-08-27T16:39:57.564Z,53
2017-08-27T16:40:14.058Z,53
2017-08-27T16:41:28.183Z,52
2017-08-27T16:41:44.297Z,52
2017-08-27T16:42:00.443Z,52
2017-08-27T16:42:16.595Z,52
2017-08-27T16:42:32.740Z,52
2017-08-27T16:42:48.958Z,52
2017-08-27T16:43:05.096Z,52
2017-08-27T16:43:21.221Z,52
2017-08-27T16:43:37.380Z,52
2017-08-27T16:43:53.556Z,52
2017-08-27T16:44:09.751Z,52
2017-08-27T16:44:25.893Z,52
2017-08-27T16:44:42.017Z,52
2017-08-27T16:44:58.134Z,52
2017-08-27T16:45:14.292Z,52
2017-08-27T16:45:30.426Z,53
2017-08-27T16:45:46.546Z,53
2017-08-27T16:46:02.728Z,53
2017-08-27T16:46:18.856Z,52
2017-08-27T16:46:34.974Z,52
2017-08-27T16:46:51.123Z,52
2017-08-27T16:47:07.292Z,52
2017-08-27T16:47:23.419Z,52
2017-08-27T16:47:39.529Z,52
2017-08-27T16:47:55.666Z,52
2017-08-27T16:48:11.848Z,52
2017-08-27T16:48:27.971Z,52
2017-08-27T16:48:44.084Z,52
2017-08-27T16:49:00.214Z,52
2017-08-27T16:49:16.396Z,52
2017-08-27T16:49:36.538Z,52
2017-08-27T16:49:52.751Z,52
2017-08-27T16:50:08.919Z,52
2017-08-27T16:50:25.073Z,53
2017-08-27T16:50:41.225Z,53
2017-08-27T16:50:57.490Z,53
2017-08-27T16:51:13.651Z,53
2017-08-27T16:51:29.823Z,53
2017-08-27T16:51:45.941Z,53
2017-08-27T16:52:02.129Z,53
2017-08-27T16:52:18.322Z,53
2017-08-27T16:52:34.457Z,53
2017-08-27T16:52:50.626Z,53
2017-08-27T16:53:06.767Z,53
2017-08-27T16:53:22.878Z,53
2017-08-27T16:53:39.046Z,53
2017-08-27T16:53:55.164Z,53
2017-08-27T16:54:11.302Z,53
2017-08-27T16:54:28.119Z,53
2017-08-27T16:54:45.141Z,53
2017-08-27T16:55:02.182Z,53
2017-08-27T16:55:18.643Z,53
2017-08-27T16:55:35.443Z,53
2017-08-27T16:55:52.254Z,53
2017-08-27T16:56:09.013Z,53
2017-08-27T16:56:25.764Z,53
2017-08-27T16:56:42.578Z,53
2017-08-27T16:56:59.312Z,53
2017-08-27T16:57:16.107Z,53
2017-08-27T16:57:32.911Z,54
2017-08-27T16:57:49.681Z,54
2017-08-27T16:58:06.416Z,54
2017-08-27T16:58:23.174Z,54
2017-08-27T16:58:39.990Z,54
2017-08-27T16:58:56.771Z,54
2017-08-27T16:59:13.850Z,54
2017-08-27T16:59:30.696Z,54
2017-08-27T16:59:47.646Z,54
2017-08-27T17:00:04.359Z,54
2017-08-27T17:00:21.219Z,54
2017-08-27T17:00:37.984Z,54
2017-08-27T17:00:54.927Z,54
2017-08-27T17:01:11.781Z,54
2017-08-27T17:02:27.321Z,54
2017-08-27T17:02:44.086Z,54
2017-08-27T17:03:01.067Z,54
2017-08-27T17:03:17.842Z,54
2017-08-27T17:03:34.652Z,54
2017-08-27T17:03:51.438Z,54
2017-08-27T17:04:10.712Z,54
2017-08-27T17:04:27.424Z,54
2017-08-27T17:04:43.904Z,54
2017-08-27T17:05:00.670Z,54
2017-08-27T17:06:10.544Z,54
2017-08-27T17:06:27.343Z,54
2017-08-27T17:06:44.250Z,54
2017-08-27T17:07:01.163Z,54
2017-08-27T17:08:16.453Z,55
2017-08-27T17:08:33.360Z,55
2017-08-27T17:08:50.236Z,55
2017-08-27T17:09:07.409Z,55
2017-08-27T17:09:23.866Z,55
2017-08-27T17:09:40.612Z,55
2017-08-27T17:09:57.391Z,55
2017-08-27T17:11:12.808Z,54
2017-08-27T17:11:30.123Z,55
2017-08-27T17:11:47.345Z,55
2017-08-27T17:12:04.301Z,55
2017-08-27T17:12:21.034Z,54
2017-08-27T17:12:37.822Z,54
2017-08-27T17:13:45.764Z,55
2017-08-27T17:14:02.523Z,55
2017-08-27T17:14:19.309Z,55
2017-08-27T17:15:29.779Z,55
2017-08-27T17:15:46.577Z,55
2017-08-27T17:16:03.390Z,55
2017-08-27T17:16:20.206Z,56
2017-08-27T17:16:36.957Z,56
2017-08-27T17:16:53.692Z,56
2017-08-27T17:17:10.444Z,56
2017-08-27T17:17:27.278Z,55
2017-08-27T17:17:44.022Z,55
2017-08-27T17:18:00.798Z,55
2017-08-27T17:18:17.589Z,55
2017-08-27T17:18:34.381Z,55
2017-08-27T17:18:51.154Z,55
2017-08-27T17:19:07.897Z,55
2017-08-27T17:19:24.681Z,56
2017-08-27T17:19:41.467Z,56
2017-08-27T17:19:58.228Z,56
2017-08-27T17:20:15.032Z,56
2017-08-27T17:20:31.817Z,56
2017-08-27T17:20:48.632Z,56
2017-08-27T17:21:05.355Z,56
2017-08-27T17:21:22.149Z,56
2017-08-27T17:21:38.929Z,56
2017-08-27T17:21:55.705Z,56
2017-08-27T17:22:12.490Z,56
2017-08-27T17:22:29.233Z,56
2017-08-27T17:22:45.997Z,56
2017-08-27T17:23:02.850Z,56
2017-08-27T17:23:19.598Z,56
2017-08-27T17:23:36.378Z,56
2017-08-27T17:23:53.143Z,56
2017-08-27T17:24:09.982Z,56
2017-08-27T17:24:26.729Z,56
2017-08-27T17:24:43.469Z,56
2017-08-27T17:25:00.245Z,56
2017-08-27T17:25:17.051Z,56
2017-08-27T17:25:33.823Z,56
2017-08-27T17:25:50.591Z,56
2017-08-27T17:26:07.363Z,56
2017-08-27T17:26:24.185Z,56
2017-08-27T17:26:40.919Z,56
2017-08-27T17:26:58.008Z,56
2017-08-27T17:27:14.501Z,56
2017-08-27T17:27:31.285Z,56
2017-08-27T17:27:48.047Z,56
2017-08-27T17:28:04.814Z,56
2017-08-27T17:28:21.634Z,56
2017-08-27T17:28:38.435Z,56
2017-08-27T17:28:55.193Z,56
2017-08-27T17:29:11.911Z,56
2017-08-27T17:29:28.702Z,56
2017-08-27T17:29:45.510Z,56
2017-08-27T17:30:02.260Z,56
2017-08-27T17:30:19.006Z,56
2017-08-27T17:30:35.835Z,56
2017-08-27T17:30:52.623Z,56
2017-08-27T17:31:09.694Z,56
2017-08-27T17:31:26.526Z,57
2017-08-27T17:31:43.228Z,57
2017-08-27T17:31:59.754Z,57
2017-08-27T17:32:16.487Z,57
2017-08-27T17:32:33.213Z,57
2017-08-27T17:32:50.063Z,57
2017-08-27T17:33:06.849Z,57
2017-08-27T17:33:23.634Z,57
2017-08-27T17:33:40.376Z,57
2017-08-27T17:33:57.176Z,57
2017-08-27T17:34:13.944Z,57
